• Join FlightAware (Why Join?)
  • Login
  • US Flag 
11:34AM EDT


 

Airport Tracker/Info


-or-


 

Live Flight TrackerFlight Track Log ✈ ASQ6041 ✈ 13-Sep-2013 ✈ KLNK - KDEN

Flight Track Log - Related Links

Times and Time Zones

All times are in EDT time to prevent confusion due to time zone crossing. See the ASQ6041 flight status page for this flight to view local times or setup timezone preferences in your user account.

Time Position Orientation Groundspeed Altitude Reporting Facility
EDT Latitude Longitude Course Direction KTS MPH feet Rate Location/Type
02:10PM 40.8117 -96.7569 251° West 168 193 1,900  Level Minneapolis Center
02:11PM 40.7908 -96.7619 190° South 191 220 2,900 1,860 Climbing Minneapolis Center
02:11PM 40.7903 -96.7831 268° West 190 219 3,200 1,740 Climbing Minneapolis Center
02:12PM 40.7600 -96.8603 243° Southwest 225 259 5,200 2,220 Climbing Minneapolis Center
02:13PM 40.7378 -96.9239 245° Southwest 279 321 7,100 2,580 Climbing Minneapolis Center
02:13PM 40.7467 -96.9625 287° West 270 311 7,900 2,340 Climbing Minneapolis Center
02:14PM 40.7742 -97.5839 252° West  Level Estimated
02:14PM 40.7375 -97.0675 263° West 284 327 10,300  Level Minneapolis Center
02:15PM 40.7608 -97.7212 255° West  Level Estimated
02:15PM 40.7278 -97.1778 263° West 297 342 12,100  Level Minneapolis Center
02:16PM 40.7263 -97.8518 251° West  Level FlightAware Approximate
02:16PM 40.7303 -97.3028 272° West 336 387 13,200  Level Minneapolis Center
02:17PM 40.7350 -97.4583 272° West 356 410 14,500 1,320 Climbing Minneapolis Center
02:18PM 40.7389 -97.5950 272° West 369 425 16,000 1,440 Climbing Minneapolis Center
02:19PM 40.7422 -97.7325 272° West 373 429 17,600 1,200 Climbing Minneapolis Center
02:20PM 40.7453 -97.8672 272° West 370 426 18,600 1,080 Climbing Minneapolis Center
02:21PM 40.7492 -98.0056 272° West 374 430 19,900 1,380 Climbing Minneapolis Center
02:22PM 40.7539 -98.1750 272° West 381 438 21,500 1,440 Climbing Minneapolis Center
02:23PM 40.7564 -98.3164 271° West 385 443 22,900 1,440 Climbing Minneapolis Center
02:24PM 40.7597 -98.4544 272° West 379 436 24,500 1,320 Climbing Minneapolis Center
02:26PM 40.7617 -98.5886 271° West 373 429 26,000 1,320 Climbing Minneapolis Center
02:27PM 40.7650 -98.7469 272° West 365 420 27,600 1,500 Climbing Minneapolis Center
02:28PM 40.7672 -98.8794 271° West 361 415 29,100 1,440 Climbing Minneapolis Center
02:29PM 40.7694 -99.0094 271° West 358 412 30,600 1,380 Climbing Minneapolis Center
02:30PM 40.7664 -99.1644 269° West 345 397 32,000 660 Climbing Minneapolis Center
02:31PM 40.7614 -99.2992 267° West 358 412 32,000  Level Minneapolis Center
02:32PM 40.7664 -99.4450 273° West 385 443 32,000  Level Minneapolis Center
02:33PM 40.7694 -99.5994 272° West 410 472 32,000  Level Minneapolis Center
02:34PM 40.7725 -99.7567 272° West 423 487 32,000  Level Minneapolis Center
02:35PM 40.7761 -99.9125 272° West 424 488 32,000  Level Minneapolis Center
02:36PM 40.7792 -100.0708 272° West 429 494 32,000  Level Minneapolis Center
02:37PM 40.7828 -100.2628 271° West 433 498 32,000  Level Minneapolis Center
02:38PM 40.7836 -100.4219 270° West 434 499 32,000  Level Minneapolis Center
02:39PM 40.7561 -100.5919 258° West 433 498 32,000  Level Denver Center
02:40PM 40.7294 -100.7483 257° West 444 511 32,000  Level Denver Center
02:41PM 40.7072 -100.9053 259° West 448 516 32,000  Level Denver Center
02:42PM 40.6769 -101.1067 259° West 440 506 32,000  Level Denver Center
02:44PM 40.6486 -101.2833 258° West 441 507 32,000  Level Denver Center
02:45PM 40.6242 -101.4356 258° West 444 511 32,000  Level Denver Center
02:46PM 40.5997 -101.5889 258° West 446 513 32,000  Level Denver Center
02:47PM 40.5700 -101.7678 258° West 449 517 32,000  Level Denver Center
02:48PM 40.5442 -101.9214 258° West 451 519 32,000  Level Denver Center
02:49PM 40.5131 -102.0997 257° West 449 517 32,000  Level Denver Center
02:50PM 40.4869 -102.2536 257° West 451 519 32,000  Level Denver Center
02:51PM 40.4567 -102.4333 258° West 452 520 32,000  Level Denver Center
02:52PM 40.4292 -102.5869 257° West 452 520 32,000  Level Denver Center
02:53PM 40.3981 -102.7669 257° West 452 520 32,000  Level Denver Center
02:54PM 40.3700 -102.9269 257° West 452 520 32,000 -660 Level Denver Center
02:55PM 40.3422 -103.0856 257° West 449 517 30,700 -1,800 Descending Denver Center
02:56PM 40.3158 -103.2375 257° West 434 499 28,300 -2,280 Descending Denver Center
02:57PM 40.2894 -103.3794 256° West 406 467 26,100 -2,280 Descending Denver Center
02:58PM 40.2586 -103.5433 256° West 388 447 23,700 -2,400 Descending Denver Center
02:59PM 40.2347 -103.6767 257° West 380 437 21,200 -2,400 Descending Denver Center
03:00PM 40.2086 -103.8047 255° West 367 422 18,800 -1,860 Descending Denver Center
03:01PM 40.2069 -103.9272 269° West 312 359 17,400 -1,680 Descending Denver Center
03:02PM 40.2181 -104.0433 277° West 324 373 15,400 -1,980 Descending Denver Center
03:03PM 40.2297 -104.1656 277° West 318 366 13,400 -1,380 Descending Denver Center
03:04PM 40.2692 -104.2478 302° West 271 312 12,600 -660 Descending Denver Center
03:05PM 40.3092 -104.3242 304° West 240 276 12,100 -300 Descending Denver Center
03:06PM 40.3392 -104.3983 298° West 234 269 12,000 -60 Descending Denver Center
03:07PM 40.3550 -104.4861 283° West 231 266 12,000  Level Denver Center
03:08PM 40.3681 -104.5672 282° West 230 265 12,000 -240 Level Denver Center
03:09PM 40.3119 -104.6158 213° Southwest 231 266 11,600 -720 Descending Denver Center
03:10PM 40.2514 -104.6128 178° South 225 259 10,600 -1,020 Descending Denver Center
03:11PM 40.1936 -104.6375 198° South 212 244 9,600 -780 Descending Denver Center
03:12PM 40.1358 -104.6381 180° South 209 241 9,000 -300 Descending Denver Center
03:14PM 40.0806 -104.6383 180° South 202 232 9,000 -420 Level Denver Center
03:15PM 40.0183 -104.6394 181° South 206 237 8,200 -840 Descending Denver Center
03:16PM 39.9653 -104.6400 180° South 195 224 7,300 -900 Descending Denver Center
03:17PM 39.9225 -104.6397 180° South 147 169 6,400 -780 Descending Denver Center
03:18PM 39.8800 -104.6406 181° South 150 173 5,700 -720 Descending Denver Center